Time;durP1;ratioP1;P1;durP2;ratioP2;P2;SDS_P1;SDS_P2;PMS_P1;PMS_P2;Temp;Humidity;BMP_temperature;BMP_pressure;BME280_temperature;BME280_humidity;BME280_pressure;Samples;Min_cycle;Max_cycle;Signal;HPM_P1;HPM_P2
2020/12/27 00:00:42;;;;;;;9.57;9.07;;;27.10;99.90;;;;;;5073655;28;20045;-59
2020/12/27 00:03:11;;;;;;;9.40;8.90;;;27.10;99.90;;;;;;5073880;28;20043;-59
2020/12/27 00:05:39;;;;;;;9.80;9.30;;;27.20;99.90;;;;;;5073761;28;20029;-60
2020/12/27 00:08:07;;;;;;;9.68;9.15;;;27.30;99.90;;;;;;5073616;28;20064;-59
2020/12/27 00:10:35;;;;;;;9.88;9.13;;;27.50;99.90;;;;;;5073553;28;20116;-60
2020/12/27 00:13:04;;;;;;;9.77;9.18;;;27.70;99.90;;;;;;5073347;28;20020;-60
2020/12/27 00:15:32;;;;;;;9.60;9.10;;;27.70;99.90;;;;;;5054990;28;20421;-60
2020/12/27 00:18:00;;;;;;;9.30;8.70;;;28.00;99.90;;;;;;5073237;28;20024;-60
2020/12/27 00:20:28;;;;;;;9.48;8.88;;;27.90;99.90;;;;;;5072156;28;20040;-60
2020/12/27 00:22:57;;;;;;;9.00;8.60;;;27.80;99.90;;;;;;5073616;28;20029;-60
2020/12/27 00:25:25;;;;;;;9.50;9.00;;;27.90;99.90;;;;;;5054836;28;20059;-60
2020/12/27 00:27:53;;;;;;;9.38;8.80;;;27.90;99.90;;;;;;5054866;28;20028;-59
2020/12/27 00:30:21;;;;;;;9.20;8.65;;;28.00;99.90;;;;;;5073476;28;20091;-60
2020/12/27 00:32:49;;;;;;;8.90;8.25;;;28.10;99.90;;;;;;5073237;28;20033;-60
2020/12/27 00:35:18;;;;;;;8.60;8.10;;;28.10;99.90;;;;;;5073142;28;20030;-60
2020/12/27 00:37:46;;;;;;;8.43;7.88;;;28.50;99.90;;;;;;5073160;28;20025;-60
2020/12/27 00:40:14;;;;;;;8.80;8.30;;;28.80;99.90;;;;;;5073083;28;20120;-61
2020/12/27 00:42:42;;;;;;;8.85;8.32;;;28.90;99.90;;;;;;5073409;28;20389;-59
2020/12/27 00:45:10;;;;;;;2.38;2.13;;;29.00;99.90;;;;;;5073236;28;20389;-60
2020/12/27 00:47:38;;;;;;;3.03;2.67;;;29.20;99.90;;;;;;5073315;28;20027;-59
2020/12/27 00:50:07;;;;;;;2.83;2.53;;;29.30;99.90;;;;;;5073348;28;20051;-59
2020/12/27 00:52:35;;;;;;;3.03;2.33;;;29.40;99.90;;;;;;5070935;28;20135;-60
2020/12/27 00:55:03;;;;;;;2.45;2.10;;;29.60;99.90;;;;;;5070795;28;20041;-60
2020/12/27 00:57:32;;;;;;;3.08;2.50;;;29.40;99.90;;;;;;5070743;28;20064;-60
2020/12/27 01:00:00;;;;;;;2.35;2.15;;;29.60;99.90;;;;;;5070817;28;20024;-59
2020/12/27 01:02:28;;;;;;;2.97;2.20;;;29.90;99.90;;;;;;5070859;28;20500;-60
2020/12/27 01:04:56;;;;;;;2.95;2.45;;;29.80;99.90;;;;;;5070692;28;20060;-60
2020/12/27 01:07:24;;;;;;;3.20;2.33;;;29.80;99.90;;;;;;5070818;28;20024;-60
2020/12/27 01:09:53;;;;;;;4.10;2.50;;;29.70;99.90;;;;;;5070710;28;20077;-60
2020/12/27 01:12:20;;;;;;;4.60;2.88;;;30.10;99.90;;;;;;5070716;28;20040;-59
2020/12/27 01:14:49;;;;;;;4.20;2.80;;;30.50;99.90;;;;;;5070706;28;20521;-60
2020/12/27 01:17:17;;;;;;;4.20;2.78;;;30.50;99.90;;;;;;5070759;28;20108;-60
2020/12/27 01:19:45;;;;;;;4.72;2.80;;;30.70;99.90;;;;;;5070588;28;20056;-61
2020/12/27 01:22:13;;;;;;;4.40;2.90;;;30.70;99.90;;;;;;5070683;28;20024;-60
2020/12/27 01:24:41;;;;;;;8.70;3.17;;;30.80;99.90;;;;;;5054754;28;20033;-61
2020/12/27 01:27:10;;;;;;;6.10;2.80;;;30.70;99.90;;;;;;5074343;28;20036;-60
2020/12/27 01:29:38;;;;;;;6.28;3.10;;;30.40;99.90;;;;;;5067982;28;20484;-60
2020/12/27 01:32:06;;;;;;;5.68;2.88;;;30.30;99.90;;;;;;5054556;28;20029;-61
2020/12/27 01:34:34;;;;;;;6.78;2.95;;;30.50;99.90;;;;;;5056234;28;20051;-60
2020/12/27 01:37:02;;;;;;;4.78;2.20;;;30.70;99.90;;;;;;5056486;28;20025;-60
2020/12/27 01:39:30;;;;;;;5.82;2.50;;;30.70;99.90;;;;;;5056449;28;20017;-60
2020/12/27 01:41:58;;;;;;;4.28;2.40;;;30.50;99.90;;;;;;5056214;28;20078;-59
2020/12/27 01:44:26;;;;;;;5.30;2.47;;;30.40;99.90;;;;;;5056334;28;20017;-59
2020/12/27 01:46:54;;;;;;;5.65;2.33;;;30.20;99.90;;;;;;5055996;28;20094;-59
2020/12/27 01:49:23;;;;;;;5.50;2.30;;;30.20;99.90;;;;;;5056246;28;20032;-59
2020/12/27 01:51:51;;;;;;;4.63;2.50;;;30.30;99.90;;;;;;5056269;28;20534;-60
2020/12/27 01:54:22;;;;;;;7.55;2.42;;;30.20;99.90;;;;;;5056430;28;20020;-60
2020/12/27 01:56:52;;;;;;;5.15;2.30;;;30.20;99.90;;;;;;5056111;28;20025;-60
2020/12/27 01:59:27;;;;;;;5.93;2.35;;;30.00;99.90;;;;;;5056325;28;20048;-59
2020/12/27 02:01:55;;;;;;;6.68;2.42;;;30.00;99.90;;;;;;5056009;28;20477;-60
2020/12/27 02:04:24;;;;;;;7.72;2.47;;;30.00;99.90;;;;;;5055843;28;20029;-61
2020/12/27 02:06:53;;;;;;;5.40;2.08;;;30.00;99.90;;;;;;5055988;28;20074;-60
2020/12/27 02:09:22;;;;;;;6.05;2.35;;;29.90;99.90;;;;;;5055701;28;20025;-60
2020/12/27 02:12:06;;;;;;;4.82;2.22;;;29.80;99.90;;;;;;5055724;28;20474;-60
2020/12/27 02:14:36;;;;;;;7.07;2.10;;;29.60;99.90;;;;;;5055674;28;20490;-60
2020/12/27 02:17:05;;;;;;;4.45;2.17;;;29.60;99.90;;;;;;5055876;28;20045;-60
2020/12/27 02:19:33;;;;;;;5.55;2.13;;;29.70;99.90;;;;;;5069184;28;20056;-60
2020/12/27 02:22:01;;;;;;;4.65;2.15;;;29.80;99.90;;;;;;5075771;28;20021;-59
2020/12/27 02:24:29;;;;;;;4.28;2.00;;;30.10;99.90;;;;;;5075374;28;20067;-60
2020/12/27 02:26:59;;;;;;;5.72;1.92;;;30.30;99.90;;;;;;5057039;28;20033;-59
2020/12/27 02:29:29;;;;;;;4.13;2.05;;;30.30;99.90;;;;;;5075488;28;20099;-62
2020/12/27 02:31:57;;;;;;;5.07;2.00;;;30.30;99.90;;;;;;5057269;28;20496;-61
2020/12/27 02:34:25;;;;;;;6.22;2.47;;;30.40;99.90;;;;;;5075519;28;20434;-61
2020/12/27 02:36:54;;;;;;;5.03;2.33;;;30.40;99.90;;;;;;5074570;28;20024;-62
2020/12/27 02:39:22;;;;;;;4.63;2.20;;;30.50;99.90;;;;;;5075509;28;20389;-61
2020/12/27 02:41:52;;;;;;;4.35;2.17;;;30.40;99.90;;;;;;5075254;28;20032;-62
2020/12/27 02:44:20;;;;;;;6.60;2.47;;;30.30;99.90;;;;;;5075126;28;20050;-61
2020/12/27 02:46:49;;;;;;;2.20;1.80;;;30.10;99.90;;;;;;5075196;28;20452;-60
2020/12/27 02:49:17;;;;;;;3.75;2.08;;;29.80;99.90;;;;;;5075303;28;20024;-61
2020/12/27 02:51:45;;;;;;;6.10;2.22;;;29.70;99.90;;;;;;5074972;28;20024;-60
2020/12/27 02:54:13;;;;;;;3.60;2.28;;;29.80;99.90;;;;;;5074870;28;20028;-62
2020/12/27 02:56:41;;;;;;;3.45;2.42;;;29.90;99.90;;;;;;5075101;28;20021;-61
2020/12/27 02:59:09;;;;;;;4.28;2.10;;;29.70;99.90;;;;;;5075002;28;20058;-60
2020/12/27 03:01:37;;;;;;;4.85;2.20;;;29.90;99.90;;;;;;5074782;28;20450;-60
2020/12/27 03:04:05;;;;;;;5.22;2.17;;;29.40;99.90;;;;;;5074918;28;20066;-61
2020/12/27 03:06:33;;;;;;;4.28;2.30;;;29.30;99.90;;;;;;5074645;28;20111;-62
2020/12/27 03:09:01;;;;;;;4.18;2.20;;;29.10;99.90;;;;;;5074500;28;20017;-61
2020/12/27 03:11:29;;;;;;;3.45;2.20;;;29.00;99.90;;;;;;5072676;28;20109;-61
2020/12/27 03:13:58;;;;;;;3.20;2.10;;;29.00;99.90;;;;;;5072730;28;20362;-60
2020/12/27 03:16:26;;;;;;;3.55;1.90;;;29.20;99.90;;;;;;5074505;28;20033;-62
2020/12/27 03:18:54;;;;;;;3.17;1.90;;;29.50;99.90;;;;;;5074178;28;20051;-60
2020/12/27 03:21:22;;;;;;;3.05;1.75;;;29.70;99.90;;;;;;5074231;28;20044;-62
2020/12/27 03:23:50;;;;;;;3.83;1.77;;;29.80;99.90;;;;;;5074381;28;20041;-60
2020/12/27 03:26:19;;;;;;;5.30;1.98;;;29.90;99.90;;;;;;5074395;28;20086;-60
2020/12/27 03:28:47;;;;;;;4.18;1.73;;;29.90;99.90;;;;;;5074134;28;20138;-61
2020/12/27 03:31:15;;;;;;;2.80;1.83;;;30.10;99.90;;;;;;5074378;28;20104;-60
2020/12/27 03:33:43;;;;;;;3.78;2.20;;;30.20;99.90;;;;;;5074335;28;20031;-61
2020/12/27 03:36:12;;;;;;;3.72;1.77;;;30.20;99.90;;;;;;5074191;28;20048;-62
2020/12/27 03:38:40;;;;;;;3.60;1.48;;;29.90;99.90;;;;;;5074057;28;20025;-61
2020/12/27 03:41:08;;;;;;;2.50;1.63;;;29.70;99.90;;;;;;5074173;28;20035;-61
2020/12/27 03:43:36;;;;;;;1.92;1.75;;;29.50;99.90;;;;;;5073955;28;20035;-60
2020/12/27 03:46:04;;;;;;;4.47;1.90;;;29.30;99.90;;;;;;5074030;28;20032;-60
2020/12/27 03:48:32;;;;;;;2.67;1.65;;;29.50;99.90;;;;;;5073168;28;20380;-61
2020/12/27 03:51:00;;;;;;;4.30;2.13;;;29.40;99.90;;;;;;5073912;28;20063;-60
2020/12/27 03:53:28;;;;;;;4.18;1.90;;;29.40;99.90;;;;;;5073969;28;20378;-60
2020/12/27 03:55:57;;;;;;;2.72;1.92;;;29.50;99.90;;;;;;5072271;28;20029;-61
2020/12/27 03:58:26;;;;;;;4.38;1.63;;;29.60;99.90;;;;;;5073963;28;20532;-61
2020/12/27 04:00:54;;;;;;;4.63;1.63;;;29.60;99.90;;;;;;5073656;28;20031;-61
2020/12/27 04:03:22;;;;;;;4.43;1.55;;;29.40;99.90;;;;;;5073501;28;20028;-61
2020/12/27 04:05:50;;;;;;;2.88;1.80;;;29.50;99.90;;;;;;5073531;28;20422;-60
2020/12/27 04:08:18;;;;;;;3.38;1.50;;;29.60;99.90;;;;;;5073621;28;20488;-61
2020/12/27 04:10:47;;;;;;;2.35;1.45;;;29.50;99.90;;;;;;5073774;28;20448;-60
2020/12/27 04:13:15;;;;;;;2.30;1.50;;;29.70;99.90;;;;;;5073513;28;20031;-60
2020/12/27 04:15:44;;;;;;;3.22;1.70;;;29.60;99.90;;;;;;5073470;28;20554;-61
2020/12/27 04:18:12;;;;;;;2.87;1.23;;;29.50;99.90;;;;;;5073646;28;20028;-60
2020/12/27 04:20:41;;;;;;;3.17;1.65;;;29.50;99.90;;;;;;5073390;28;20031;-60
2020/12/27 04:23:09;;;;;;;3.00;1.60;;;29.50;99.90;;;;;;5054945;28;20047;-60
2020/12/27 04:25:37;;;;;;;2.80;1.30;;;29.50;99.90;;;;;;5073506;28;20052;-60
2020/12/27 04:28:05;;;;;;;3.03;1.38;;;29.30;99.90;;;;;;5073566;28;20059;-60
2020/12/27 04:30:33;;;;;;;1.65;1.20;;;29.30;99.90;;;;;;5073248;28;20108;-59
2020/12/27 04:33:01;;;;;;;1.77;1.40;;;29.30;99.90;;;;;;5073505;28;20112;-60
2020/12/27 04:35:29;;;;;;;3.40;1.60;;;29.20;99.90;;;;;;5073458;28;20020;-59
2020/12/27 04:37:58;;;;;;;2.78;1.50;;;29.30;99.90;;;;;;5073476;28;20484;-60
2020/12/27 04:40:26;;;;;;;1.73;1.38;;;29.40;99.90;;;;;;5073369;28;20020;-60
2020/12/27 04:42:54;;;;;;;2.33;1.45;;;29.40;99.90;;;;;;5073325;28;20024;-60
2020/12/27 04:45:22;;;;;;;2.20;1.42;;;29.50;99.90;;;;;;5073282;28;20032;-60
2020/12/27 04:47:50;;;;;;;2.55;1.67;;;29.30;99.90;;;;;;5073379;28;20107;-59
2020/12/27 04:50:20;;;;;;;3.97;2.00;;;29.60;99.90;;;;;;5071857;28;20113;-60
2020/12/27 04:52:48;;;;;;;4.28;1.50;;;29.60;99.90;;;;;;5073508;28;20051;-59
2020/12/27 04:55:16;;;;;;;5.43;1.70;;;29.30;99.90;;;;;;5073310;28;20366;-59
2020/12/27 04:57:50;;;;;;;2.13;1.42;;;29.60;99.90;;;;;;5073270;28;20025;-59
2020/12/27 05:00:22;;;;;;;4.32;1.42;;;29.80;99.90;;;;;;5074663;28;20025;-59
2020/12/27 05:02:50;;;;;;;3.20;1.60;;;30.10;99.90;;;;;;5077036;28;20020;-60
2020/12/27 05:05:18;;;;;;;3.17;1.55;;;30.30;99.90;;;;;;5077163;28;20381;-60
2020/12/27 05:07:46;;;;;;;2.38;1.30;;;30.10;99.90;;;;;;5076993;28;20016;-60
2020/12/27 05:10:14;;;;;;;2.33;1.35;;;30.20;99.90;;;;;;5076933;28;20020;-60
2020/12/27 05:12:42;;;;;;;1.92;1.08;;;30.30;99.90;;;;;;5076727;28;20016;-60
2020/12/27 05:15:11;;;;;;;5.15;1.75;;;30.30;99.90;;;;;;5076830;28;20039;-60
2020/12/27 05:17:39;;;;;;;2.05;1.30;;;30.30;99.90;;;;;;5058280;28;20101;-61
2020/12/27 05:20:16;;;;;;;3.33;1.48;;;30.40;99.90;;;;;;5076337;28;20102;-59
2020/12/27 05:22:45;;;;;;;2.95;1.30;;;30.40;99.90;;;;;;5076947;28;20377;-60
2020/12/27 05:25:14;;;;;;;3.90;1.33;;;30.20;99.90;;;;;;5076491;28;20031;-60
2020/12/27 05:27:43;;;;;;;4.50;1.30;;;30.10;99.90;;;;;;5076811;28;20048;-60
2020/12/27 05:30:11;;;;;;;2.03;1.20;;;30.40;99.90;;;;;;5076481;28;20067;-60
2020/12/27 05:32:45;;;;;;;3.72;1.75;;;30.30;99.90;;;;;;5076646;28;20385;-59
2020/12/27 05:35:13;;;;;;;1.85;1.00;;;30.40;99.90;;;;;;5076695;28;20044;-60
2020/12/27 05:37:41;;;;;;;2.08;1.20;;;30.60;99.90;;;;;;5076505;28;20416;-60
2020/12/27 05:40:10;;;;;;;2.53;1.27;;;30.50;99.90;;;;;;5076492;28;20021;-60
2020/12/27 05:42:38;;;;;;;4.57;1.08;;;30.50;99.90;;;;;;5076181;28;20066;-60
2020/12/27 05:45:25;;;;;;;3.03;1.10;;;30.80;99.90;;;;;;5076177;28;20111;-59
2020/12/27 05:47:53;;;;;;;2.17;1.17;;;30.80;99.90;;;;;;5053989;28;20036;-59
2020/12/27 05:50:22;;;;;;;2.80;1.25;;;31.00;99.90;;;;;;5054095;28;20412;-60
2020/12/27 05:52:58;;;;;;;3.45;1.30;;;31.20;99.90;;;;;;5053983;28;20505;-59
2020/12/27 05:55:27;;;;;;;2.78;1.10;;;31.20;99.90;;;;;;5020860;28;20025;-59
2020/12/27 05:57:56;;;;;;;3.55;1.00;;;31.10;99.90;;;;;;5054004;28;20033;-59
2020/12/27 06:00:25;;;;;;;1.67;1.00;;;31.10;99.90;;;;;;5053878;28;20025;-59
2020/12/27 06:02:58;;;;;;;2.92;0.98;;;31.20;99.90;;;;;;5037437;28;20033;-59
2020/12/27 06:06:11;;;;;;;2.13;1.08;;;31.10;99.90;;;;;;5053791;28;20087;-60
2020/12/27 06:09:08;;;;;;;2.70;1.13;;;31.00;99.90;;;;;;5033747;28;20595;-61
2020/12/27 06:11:52;;;;;;;3.13;1.05;;;30.90;99.90;;;;;;5012927;28;20554;-59
2020/12/27 06:14:43;;;;;;;2.08;1.00;;;31.00;99.90;;;;;;5013879;28;20034;-61
2020/12/27 06:17:16;;;;;;;2.58;1.15;;;31.10;99.90;;;;;;5013736;28;20120;-61
2020/12/27 06:20:07;;;;;;;3.40;1.20;;;31.10;99.90;;;;;;5014990;28;20056;-60
2020/12/27 06:22:40;;;;;;;2.50;1.00;;;31.10;99.90;;;;;;5013765;28;20038;-59
2020/12/27 06:25:10;;;;;;;2.55;1.27;;;31.10;99.90;;;;;;4982643;28;20113;-59
2020/12/27 06:27:39;;;;;;;1.63;0.98;;;30.70;99.90;;;;;;5013444;28;20498;-59
2020/12/27 06:30:22;;;;;;;1.75;1.10;;;30.00;99.90;;;;;;5013445;28;20026;-59
2020/12/27 06:33:20;;;;;;;4.05;1.23;;;29.70;99.90;;;;;;5013388;28;20038;-59
2020/12/27 06:35:48;;;;;;;2.58;1.40;;;29.90;99.90;;;;;;5013312;28;20037;-59
2020/12/27 06:38:20;;;;;;;3.00;0.90;;;30.00;99.90;;;;;;5013328;28;20562;-59
2020/12/27 06:40:58;;;;;;;4.63;1.27;;;30.00;99.90;;;;;;5013316;28;20034;-59
2020/12/27 06:43:27;;;;;;;1.92;1.05;;;30.20;99.90;;;;;;5013279;28;20038;-60
2020/12/27 06:46:14;;;;;;;2.72;0.90;;;29.80;99.90;;;;;;5013129;28;20061;-59
2020/12/27 06:48:44;;;;;;;3.45;1.10;;;29.50;99.90;;;;;;5030948;28;20033;-59
2020/12/27 06:51:12;;;;;;;2.78;1.05;;;29.60;99.90;;;;;;5053016;28;20035;-59
2020/12/27 06:53:45;;;;;;;2.92;1.30;;;29.70;99.90;;;;;;5052598;28;20033;-59
2020/12/27 06:56:14;;;;;;;2.28;1.20;;;29.70;99.90;;;;;;5052961;28;20392;-60
2020/12/27 06:59:00;;;;;;;3.00;0.95;;;29.50;99.90;;;;;;5019560;28;20458;-59
2020/12/27 07:01:28;;;;;;;3.88;1.30;;;29.60;99.90;;;;;;5074675;28;20025;-61
2020/12/27 07:04:13;;;;;;;3.13;1.00;;;29.50;99.90;;;;;;5074696;28;20103;-59
2020/12/27 07:06:46;;;;;;;2.42;1.13;;;29.20;99.90;;;;;;5074807;28;20526;-59
2020/12/27 07:09:39;;;;;;;4.25;1.10;;;29.00;99.90;;;;;;5074445;28;20107;-59
2020/12/27 07:12:09;;;;;;;3.15;1.48;;;28.40;99.90;;;;;;5052657;28;20037;-60
2020/12/27 07:14:41;;;;;;;2.35;1.10;;;28.00;99.90;;;;;;5036139;28;20037;-60
2020/12/27 07:17:11;;;;;;;4.25;1.27;;;27.50;99.90;;;;;;5052568;28;20036;-59
2020/12/27 07:19:40;;;;;;;3.25;1.30;;;27.20;99.90;;;;;;5052112;28;20556;-60
2020/12/27 07:22:11;;;;;;;2.85;1.02;;;26.90;99.90;;;;;;5052144;28;20029;-60
2020/12/27 07:24:41;;;;;;;4.22;1.30;;;26.70;99.90;;;;;;5052044;28;20172;-59
2020/12/27 07:27:11;;;;;;;3.60;1.15;;;26.50;99.90;;;;;;5052124;28;20440;-59
2020/12/27 07:29:57;;;;;;;2.05;1.17;;;26.50;99.90;;;;;;5052091;28;20049;-60
2020/12/27 07:32:26;;;;;;;4.18;1.20;;;26.20;99.90;;;;;;5002509;28;20547;-60
2020/12/27 07:34:56;;;;;;;4.07;1.40;;;26.10;99.90;;;;;;5051991;28;20118;-60
2020/12/27 07:37:27;;;;;;;4.32;1.60;;;26.00;99.90;;;;;;5051858;28;20444;-60
2020/12/27 07:39:58;;;;;;;3.85;1.70;;;26.00;99.90;;;;;;5051906;28;20052;-59
2020/12/27 07:42:29;;;;;;;;;;;26.00;99.90;;;;;;5058538;28;20492;-60
2020/12/27 07:45:00;;;;;;;3.38;1.20;;;25.90;99.90;;;;;;5074044;28;19905;-59
2020/12/27 07:47:29;;;;;;;4.20;1.60;;;25.90;99.90;;;;;;5074132;28;20480;-59
2020/12/27 07:50:09;;;;;;;2.85;1.58;;;25.90;99.90;;;;;;5074204;28;20025;-59
2020/12/27 07:52:58;;;;;;;2.38;1.50;;;25.90;99.90;;;;;;5074038;28;20013;-60
2020/12/27 07:55:30;;;;;;;5.45;1.38;;;25.70;99.90;;;;;;5051616;28;20036;-60
2020/12/27 07:58:02;;;;;;;2.70;1.40;;;25.60;99.90;;;;;;5051660;28;20037;-60
2020/12/27 08:00:32;;;;;;;1.45;1.35;;;25.60;99.90;;;;;;5051495;28;20033;-59
2020/12/27 08:03:05;;;;;;;1.95;1.15;;;25.50;99.90;;;;;;5051517;28;20037;-60
2020/12/27 08:05:35;;;;;;;5.30;1.60;;;25.50;99.90;;;;;;5051374;28;20033;-60
2020/12/27 08:08:05;;;;;;;2.20;1.30;;;25.40;99.90;;;;;;5051408;28;20025;-60
2020/12/27 08:10:33;;;;;;;3.55;1.38;;;25.30;99.90;;;;;;5051565;28;20604;-59
2020/12/27 08:13:04;;;;;;;3.45;1.30;;;25.30;99.90;;;;;;5051362;28;20028;-60
2020/12/27 08:15:38;;;;;;;2.85;1.55;;;25.20;99.90;;;;;;5018586;28;20123;-58
2020/12/27 08:18:07;;;;;;;5.53;1.58;;;25.20;99.90;;;;;;5050669;28;20440;-58
2020/12/27 08:20:46;;;;;;;3.65;1.60;;;25.10;99.90;;;;;;5034926;28;20037;-59
2020/12/27 08:23:15;;;;;;;5.70;1.48;;;25.10;99.90;;;;;;5051198;28;20493;-58
2020/12/27 08:25:43;;;;;;;2.97;1.20;;;25.00;99.90;;;;;;5056328;28;20033;-59
2020/12/27 08:28:14;;;;;;;3.10;1.25;;;25.00;99.90;;;;;;5073240;28;20074;-59
2020/12/27 08:30:45;;;;;;;3.83;1.35;;;25.00;99.90;;;;;;5073690;28;20028;-58
2020/12/27 08:33:20;;;;;;;4.00;1.95;;;25.00;99.90;;;;;;5073520;28;20024;-59
2020/12/27 08:35:50;;;;;;;1.83;1.13;;;24.80;99.90;;;;;;5072875;28;20028;-59
2020/12/27 08:38:42;;;;;;;6.30;1.33;;;24.80;99.90;;;;;;5073229;28;20032;-59
2020/12/27 08:41:26;;;;;;;1.77;1.00;;;24.70;99.90;;;;;;5073094;28;20111;-60
2020/12/27 08:44:20;;;;;;;3.92;1.38;;;24.70;99.90;;;;;;5073356;28;20020;-59
2020/12/27 08:46:51;;;;;;;4.03;1.10;;;24.70;99.90;;;;;;5050970;28;20033;-59
2020/12/27 08:49:46;;;;;;;5.50;1.40;;;24.60;99.90;;;;;;5051093;28;20497;-59
2020/12/27 08:52:25;;;;;;;3.83;1.10;;;24.60;99.90;;;;;;5050851;28;20017;-59
2020/12/27 08:54:57;;;;;;;3.05;0.80;;;24.50;99.90;;;;;;5051004;28;20424;-60
2020/12/27 08:57:25;;;;;;;3.08;1.10;;;24.60;99.90;;;;;;5050945;28;20021;-60
2020/12/27 09:00:08;;;;;;;2.92;1.20;;;24.50;99.90;;;;;;5050840;28;20021;-59
2020/12/27 09:02:37;;;;;;;3.63;1.50;;;24.50;99.90;;;;;;5050996;28;20520;-60
2020/12/27 09:05:15;;;;;;;4.70;1.58;;;24.50;99.90;;;;;;5050692;28;20032;-60
2020/12/27 09:07:47;;;;;;;3.65;1.40;;;24.50;99.90;;;;;;5050606;28;20124;-59
2020/12/27 09:10:21;;;;;;;2.70;1.20;;;24.50;99.90;;;;;;5050665;28;20063;-61
2020/12/27 09:13:08;;;;;;;4.60;1.70;;;24.40;99.90;;;;;;5050708;28;20041;-60
2020/12/27 09:15:51;;;;;;;3.53;1.58;;;24.40;99.90;;;;;;5030791;28;20167;-59
2020/12/27 09:18:30;;;;;;;6.75;1.65;;;24.40;99.90;;;;;;5046112;28;20055;-60
2020/12/27 09:21:01;;;;;;;4.57;1.63;;;24.40;99.90;;;;;;5050535;28;20037;-60
2020/12/27 09:23:29;;;;;;;5.90;1.38;;;24.40;99.90;;;;;;5050642;28;20029;-60
2020/12/27 09:26:10;;;;;;;3.30;1.23;;;24.40;99.90;;;;;;5050468;28;20072;-60
2020/12/27 09:28:40;;;;;;;3.45;1.23;;;24.40;99.90;;;;;;5050234;28;20509;-60
2020/12/27 09:31:15;;;;;;;5.00;1.20;;;24.30;99.90;;;;;;5050551;28;20117;-59
2020/12/27 09:33:47;;;;;;;3.25;1.33;;;24.30;99.90;;;;;;5050444;28;20037;-60
2020/12/27 09:36:16;;;;;;;4.20;1.55;;;24.30;99.90;;;;;;5050529;28;20056;-60
2020/12/27 09:38:45;;;;;;;3.72;1.48;;;24.30;99.90;;;;;;5050477;28;20063;-60
2020/12/27 09:41:20;;;;;;;3.97;1.00;;;24.30;99.90;;;;;;5017303;28;20051;-60
2020/12/27 09:44:02;;;;;;;4.93;1.40;;;24.30;99.90;;;;;;5050442;28;20021;-59
2020/12/27 09:46:51;;;;;;;5.50;1.50;;;24.30;99.90;;;;;;5052244;28;20508;-59
2020/12/27 09:49:25;;;;;;;4.18;1.45;;;24.20;99.90;;;;;;5034218;28;20034;-60
2020/12/27 09:52:13;;;;;;;5.00;1.33;;;24.30;99.90;;;;;;5018594;28;20429;-59
2020/12/27 09:54:42;;;;;;;5.55;1.65;;;24.30;99.90;;;;;;5033961;28;20137;-59
2020/12/27 09:57:15;;;;;;;4.03;1.70;;;24.30;99.90;;;;;;5034087;28;20041;-61
2020/12/27 09:59:44;;;;;;;6.28;1.90;;;24.20;99.90;;;;;;4984585;28;20072;-60
2020/12/27 10:02:12;;;;;;;4.57;1.25;;;24.20;99.90;;;;;;5034032;28;20398;-60
2020/12/27 10:04:40;;;;;;;5.10;1.60;;;24.20;99.90;;;;;;5033841;28;20045;-61
2020/12/27 10:07:08;;;;;;;5.00;1.60;;;24.20;99.90;;;;;;5033715;28;20064;-61
2020/12/27 10:09:36;;;;;;;6.15;1.73;;;24.20;99.90;;;;;;5033830;28;20041;-60
2020/12/27 10:12:05;;;;;;;5.45;1.77;;;24.20;99.90;;;;;;5033704;28;20398;-61
2020/12/27 10:14:33;;;;;;;8.20;2.03;;;24.20;99.90;;;;;;5033515;28;20084;-60
2020/12/27 10:17:02;;;;;;;4.80;1.60;;;24.20;99.90;;;;;;5033593;28;20552;-61
2020/12/27 10:19:30;;;;;;;9.38;1.73;;;24.20;99.90;;;;;;5033260;28;20056;-61
2020/12/27 10:21:58;;;;;;;8.85;1.50;;;24.20;99.90;;;;;;5033422;28;20025;-61
2020/12/27 10:24:28;;;;;;;6.20;1.63;;;24.20;99.90;;;;;;5033782;28;20062;-60
2020/12/27 10:26:56;;;;;;;4.88;1.58;;;24.20;99.90;;;;;;5066557;28;20503;-61
2020/12/27 10:29:23;;;;;;;10.68;1.95;;;24.20;99.90;;;;;;5075652;28;20059;-61
2020/12/27 10:31:53;;;;;;;4.50;1.50;;;24.20;99.90;;;;;;5075331;28;20021;-61
2020/12/27 10:34:22;;;;;;;5.68;1.88;;;24.20;99.90;;;;;;5075311;28;20096;-60
2020/12/27 10:36:52;;;;;;;7.47;1.67;;;24.20;99.90;;;;;;5075511;28;20242;-60
2020/12/27 10:39:20;;;;;;;8.80;2.42;;;24.20;99.90;;;;;;5075212;28;20025;-60
2020/12/27 10:41:49;;;;;;;6.32;1.67;;;24.20;99.90;;;;;;5073851;28;20036;-60
2020/12/27 10:44:17;;;;;;;8.05;2.08;;;24.20;99.90;;;;;;5075371;28;20432;-60
2020/12/27 10:46:46;;;;;;;7.47;2.50;;;24.20;99.90;;;;;;5074993;28;20033;-61
2020/12/27 10:49:13;;;;;;;6.20;2.08;;;24.10;99.90;;;;;;5075200;28;20098;-61
2020/12/27 10:51:42;;;;;;;5.80;1.67;;;24.10;99.90;;;;;;5073911;28;20388;-60
2020/12/27 10:54:11;;;;;;;6.70;1.67;;;24.10;99.90;;;;;;5074783;28;20033;-61
2020/12/27 10:56:43;;;;;;;4.90;1.97;;;24.10;99.90;;;;;;5074949;28;20036;-60
2020/12/27 10:59:11;;;;;;;4.20;1.58;;;24.10;99.90;;;;;;5056329;28;20637;-60
2020/12/27 11:01:47;;;;;;;6.13;2.00;;;24.10;99.90;;;;;;5074763;28;20025;-60
2020/12/27 11:04:15;;;;;;;8.57;1.70;;;24.10;99.90;;;;;;5073672;28;20403;-61
2020/12/27 11:06:43;;;;;;;8.75;2.15;;;24.00;99.90;;;;;;5074617;28;20021;-61
2020/12/27 11:09:11;;;;;;;4.10;1.70;;;24.00;99.90;;;;;;5074545;28;20020;-61
2020/12/27 11:11:39;;;;;;;4.07;2.10;;;24.00;99.90;;;;;;5074840;28;20024;-61
2020/12/27 11:14:07;;;;;;;5.68;1.60;;;24.00;99.90;;;;;;5074789;28;20035;-60
2020/12/27 11:16:35;;;;;;;9.50;1.92;;;24.00;99.90;;;;;;5074571;28;20468;-60
2020/12/27 11:19:04;;;;;;;7.03;2.03;;;24.00;99.90;;;;;;5074369;28;20048;-60
2020/12/27 11:21:32;;;;;;;5.72;1.85;;;23.90;99.90;;;;;;5056012;28;20123;-60
2020/12/27 11:23:59;;;;;;;5.10;2.15;;;23.90;99.90;;;;;;5074608;28;20040;-60
2020/12/27 11:26:27;;;;;;;4.07;1.80;;;23.90;99.90;;;;;;5072450;28;20039;-60
2020/12/27 11:28:55;;;;;;;4.72;1.67;;;23.90;99.90;;;;;;5074495;28;20016;-60
2020/12/27 11:31:22;;;;;;;5.35;2.03;;;23.90;99.90;;;;;;5074256;28;20070;-60
2020/12/27 11:33:50;;;;;;;3.67;1.88;;;23.90;99.90;;;;;;5074399;28;20028;-60
2020/12/27 11:36:18;;;;;;;3.95;1.48;;;23.90;99.90;;;;;;5074158;28;20107;-60
2020/12/27 11:38:46;;;;;;;3.58;1.65;;;23.90;99.90;;;;;;5074100;28;20025;-60
2020/12/27 11:41:15;;;;;;;5.10;1.63;;;23.90;99.90;;;;;;5074344;28;20356;-61
2020/12/27 11:43:43;;;;;;;5.18;1.95;;;24.00;99.90;;;;;;5074016;28;20047;-60
2020/12/27 11:46:11;;;;;;;3.60;2.00;;;24.00;99.90;;;;;;5074117;28;20279;-61
2020/12/27 11:48:41;;;;;;;2.92;1.30;;;24.00;99.90;;;;;;5074095;28;20082;-60
2020/12/27 11:51:09;;;;;;;3.10;1.65;;;23.90;99.90;;;;;;5073847;28;20032;-60
2020/12/27 11:53:36;;;;;;;4.78;1.50;;;23.90;99.90;;;;;;5074054;28;20473;-61
2020/12/27 11:56:04;;;;;;;3.53;1.52;;;24.00;99.90;;;;;;5074087;28;20028;-61
2020/12/27 11:58:32;;;;;;;2.47;1.70;;;24.00;99.90;;;;;;5073625;28;20035;-59
2020/12/27 12:01:00;;;;;;;6.18;1.80;;;24.00;99.90;;;;;;5073920;28;20031;-59
2020/12/27 12:03:27;;;;;;;2.88;1.25;;;23.90;99.90;;;;;;5073891;28;20027;-60
2020/12/27 12:05:55;;;;;;;3.00;1.65;;;23.90;99.90;;;;;;5073792;28;20051;-60
2020/12/27 12:08:22;;;;;;;3.35;1.55;;;23.90;99.90;;;;;;5073826;28;20027;-60
2020/12/27 12:10:53;;;;;;;2.05;1.40;;;23.90;99.90;;;;;;5072979;28;20491;-59
2020/12/27 12:13:21;;;;;;;5.32;1.73;;;23.90;99.90;;;;;;5055054;28;20393;-60
2020/12/27 12:15:48;;;;;;;3.53;1.85;;;23.90;99.90;;;;;;5073722;28;20031;-60
2020/12/27 12:18:16;;;;;;;2.63;1.67;;;23.90;99.90;;;;;;5073408;28;20028;-60
2020/12/27 12:20:45;;;;;;;3.05;1.35;;;23.90;99.90;;;;;;5073561;28;20103;-61
2020/12/27 12:23:15;;;;;;;2.90;1.50;;;23.90;99.90;;;;;;5073625;28;20103;-59
2020/12/27 12:25:47;;;;;;;2.60;1.63;;;23.90;99.90;;;;;;5073244;28;20123;-58
2020/12/27 12:28:15;;;;;;;4.68;1.60;;;23.90;99.90;;;;;;5073658;28;20052;-58
2020/12/27 12:30:44;;;;;;;7.38;1.85;;;23.80;99.90;;;;;;5073522;28;20023;-60
2020/12/27 12:33:13;;;;;;;4.50;1.45;;;23.90;99.90;;;;;;5073240;28;20059;-60
2020/12/27 12:35:41;;;;;;;3.65;1.67;;;23.80;99.90;;;;;;5073275;28;20035;-60
2020/12/27 12:38:09;;;;;;;4.85;1.80;;;23.80;99.90;;;;;;5073620;28;20029;-59
2020/12/27 12:40:37;;;;;;;3.25;1.30;;;23.80;99.90;;;;;;5073310;28;20029;-60
2020/12/27 12:43:05;;;;;;;6.28;1.67;;;23.80;99.90;;;;;;5073134;28;20029;-60
2020/12/27 12:45:34;;;;;;;2.95;1.60;;;23.80;99.90;;;;;;5073427;28;20389;-59
2020/12/27 12:48:01;;;;;;;3.65;1.48;;;23.80;99.90;;;;;;5073204;28;20484;-59
2020/12/27 12:50:29;;;;;;;4.85;1.92;;;23.80;99.90;;;;;;5073054;28;20028;-61
2020/12/27 12:52:57;;;;;;;3.63;1.50;;;23.80;99.90;;;;;;5073119;28;20102;-60
2020/12/27 12:55:25;;;;;;;7.15;1.75;;;23.80;99.90;;;;;;5073042;28;20021;-60
2020/12/27 12:57:53;;;;;;;4.53;1.60;;;23.80;99.90;;;;;;5073312;28;20025;-59
2020/12/27 13:00:21;;;;;;;3.30;1.58;;;23.80;99.90;;;;;;5073002;28;20120;-61
2020/12/27 13:02:49;;;;;;;3.90;1.40;;;23.80;99.90;;;;;;5073215;28;20020;-60
2020/12/27 13:05:17;;;;;;;2.25;1.45;;;23.80;99.90;;;;;;5073117;28;20032;-60